createdAt,value
2022-08-17T00:02:26.182Z,20.70
2022-08-17T00:07:30.292Z,20.60
2022-08-17T00:12:42.562Z,20.60
2022-08-17T00:17:48.249Z,20.50
2022-08-17T00:22:50.365Z,20.40
2022-08-17T00:27:52.327Z,20.50
2022-08-17T00:33:13.673Z,20.50
2022-08-17T00:38:18.497Z,20.60
2022-08-17T00:43:37.086Z,20.40
2022-08-17T00:48:39.627Z,20.30
2022-08-17T00:53:45.065Z,20.30
2022-08-17T00:58:49.970Z,20.10
2022-08-17T01:03:53.440Z,20.10
2022-08-17T01:09:03.427Z,20.10
2022-08-17T01:14:05.284Z,19.90
2022-08-17T01:19:16.269Z,19.80
2022-08-17T01:24:18.525Z,19.90
2022-08-17T01:29:22.028Z,19.70
2022-08-17T01:34:24.987Z,19.70
2022-08-17T01:39:43.858Z,19.70
2022-08-17T01:44:45.654Z,19.60
2022-08-17T01:49:47.634Z,19.60
2022-08-17T01:54:51.284Z,19.60
2022-08-17T01:59:53.099Z,19.60
2022-08-17T02:04:54.993Z,19.50
2022-08-17T02:09:57.169Z,19.50
2022-08-17T02:15:01.942Z,19.40
2022-08-17T02:20:04.818Z,19.40
2022-08-17T02:25:09.340Z,19.30
2022-08-17T02:30:59.491Z,19.30
2022-08-17T02:35:37.301Z,19.20
2022-08-17T02:40:40.479Z,19.10
2022-08-17T02:45:42.320Z,19.10
2022-08-17T02:50:44.114Z,19.00
2022-08-17T02:55:45.979Z,19.00
2022-08-17T03:00:48.535Z,19.10
2022-08-17T03:05:53.475Z,19.00
2022-08-17T03:10:55.484Z,18.90
2022-08-17T03:15:57.582Z,18.70
2022-08-17T03:21:01.447Z,18.60
2022-08-17T03:26:03.277Z,18.40
2022-08-17T03:31:07.201Z,18.40
2022-08-17T03:36:09.407Z,18.40
2022-08-17T03:41:11.270Z,18.40
2022-08-17T03:46:35.279Z,18.20
2022-08-17T03:51:55.844Z,18.30
2022-08-17T03:57:05.290Z,18.20
2022-08-17T04:02:11.142Z,18.10
2022-08-17T04:07:12.964Z,18.10
2022-08-17T04:12:20.464Z,18.20
2022-08-17T04:17:27.623Z,18.40
2022-08-17T04:22:32.137Z,18.40
2022-08-17T04:27:36.411Z,18.50
2022-08-17T04:33:04.099Z,18.50
2022-08-17T04:38:10.472Z,18.70
2022-08-17T04:43:19.107Z,18.80
2022-08-17T04:48:20.980Z,18.90
2022-08-17T04:53:22.829Z,19.10
2022-08-17T04:58:25.167Z,19.20
2022-08-17T05:03:27.528Z,19.40
2022-08-17T05:08:29.382Z,19.30
2022-08-17T05:13:31.618Z,19.50
2022-08-17T05:18:33.451Z,19.80
2022-08-17T05:23:42.972Z,21.20
2022-08-17T05:28:45.494Z,23.50
2022-08-17T05:33:49.486Z,24.90
2022-08-17T05:38:51.403Z,26.80
2022-08-17T05:43:56.361Z,28.10
2022-08-17T05:49:03.174Z,27.10
2022-08-17T05:54:26.584Z,24.60
2022-08-17T05:59:53.025Z,23.20
2022-08-17T06:05:14.868Z,24.20
2022-08-17T06:10:35.506Z,23.90
2022-08-17T06:15:49.448Z,26.80
2022-08-17T06:20:56.635Z,28.50
2022-08-17T06:26:03.909Z,29.90
2022-08-17T06:31:15.529Z,30.30
2022-08-17T06:36:35.381Z,32.20
2022-08-17T06:41:53.894Z,33.30
2022-08-17T06:47:08.999Z,33.90
2022-08-17T06:52:46.107Z,32.60
2022-08-17T06:57:57.999Z,33.60
2022-08-17T07:03:12.652Z,34.30
2022-08-17T07:08:47.351Z,33.10
2022-08-17T07:14:00.519Z,33.60
2022-08-17T07:19:02.498Z,34.00
2022-08-17T07:24:29.444Z,34.10
2022-08-17T07:29:40.466Z,35.50
2022-08-17T07:35:05.136Z,37.00
2022-08-17T07:40:21.483Z,37.30
2022-08-17T07:45:42.168Z,36.10
2022-08-17T07:50:49.572Z,36.60
2022-08-17T07:55:54.219Z,36.90
2022-08-17T08:01:11.625Z,35.90
2022-08-17T08:06:22.433Z,36.30
2022-08-17T08:11:36.541Z,36.40
2022-08-17T08:16:40.521Z,36.60
2022-08-17T08:21:49.101Z,36.90
2022-08-17T08:27:21.910Z,37.30
2022-08-17T08:32:51.608Z,36.80
2022-08-17T08:38:19.941Z,36.60
2022-08-17T08:43:32.055Z,36.20
2022-08-17T08:48:56.982Z,35.80
2022-08-17T08:54:28.307Z,36.80
2022-08-17T08:59:41.880Z,38.00
2022-08-17T09:05:16.503Z,37.60
2022-08-17T09:10:27.136Z,35.50
2022-08-17T09:15:37.909Z,36.90
2022-08-17T09:20:50.316Z,36.70
2022-08-17T09:26:07.786Z,37.30
2022-08-17T09:31:16.702Z,37.10
2022-08-17T09:36:33.408Z,36.60
2022-08-17T09:42:06.456Z,37.30
2022-08-17T09:47:34.548Z,37.60
2022-08-17T09:52:36.429Z,37.80
2022-08-17T09:57:59.841Z,38.20
2022-08-17T10:03:04.597Z,38.60
2022-08-17T10:08:51.900Z,36.00
2022-08-17T10:14:37.860Z,36.30
2022-08-17T10:19:40.267Z,37.20
2022-08-17T10:25:23.538Z,37.00
2022-08-17T10:30:33.192Z,35.60
2022-08-17T10:35:42.444Z,35.70
2022-08-17T10:41:18.552Z,34.60
2022-08-17T10:46:31.547Z,35.10
2022-08-17T10:51:38.005Z,36.00
2022-08-17T10:56:47.741Z,36.30
2022-08-17T11:01:49.463Z,36.40
2022-08-17T11:06:51.207Z,35.70
2022-08-17T11:12:13.952Z,35.20
2022-08-17T11:17:37.099Z,35.40
2022-08-17T11:22:58.034Z,35.90
2022-08-17T11:28:13.943Z,36.20
2022-08-17T11:33:34.153Z,36.00
2022-08-17T11:39:14.638Z,37.40
2022-08-17T11:44:28.957Z,36.40
2022-08-17T11:49:58.295Z,36.00
2022-08-17T11:55:17.983Z,36.30
2022-08-17T12:00:46.996Z,37.20
2022-08-17T12:05:53.482Z,36.60
2022-08-17T12:12:11.350Z,35.90
2022-08-17T12:16:57.617Z,36.00
2022-08-17T12:22:21.909Z,35.90
2022-08-17T12:27:53.137Z,35.80
2022-08-17T12:32:50.147Z,35.30
2022-08-17T12:37:52.272Z,34.80
2022-08-17T12:43:06.712Z,34.90
2022-08-17T12:48:21.377Z,34.50
2022-08-17T12:53:30.171Z,34.20
2022-08-17T12:58:47.372Z,34.00
2022-08-17T13:03:52.414Z,33.70
2022-08-17T13:08:54.745Z,33.50
2022-08-17T13:14:08.351Z,33.40
2022-08-17T13:19:20.218Z,32.80
2022-08-17T13:24:53.157Z,32.00
2022-08-17T13:30:07.085Z,31.50
2022-08-17T13:35:33.438Z,30.90
2022-08-17T13:40:51.904Z,30.50
2022-08-17T13:45:53.838Z,30.40
2022-08-17T13:50:55.590Z,30.00
2022-08-17T13:56:38.636Z,29.50
2022-08-17T14:01:43.478Z,29.20
2022-08-17T14:06:54.503Z,29.10
2022-08-17T14:11:58.419Z,28.90
2022-08-17T14:17:00.389Z,28.80
2022-08-17T14:22:02.822Z,29.00
2022-08-17T14:27:06.435Z,29.10
2022-08-17T14:32:17.109Z,29.20
2022-08-17T14:37:20.660Z,29.20
2022-08-17T14:42:29.580Z,29.40
2022-08-17T14:47:32.200Z,29.60
2022-08-17T14:52:33.975Z,29.60
2022-08-17T14:57:35.810Z,29.50
2022-08-17T15:02:46.658Z,29.10
2022-08-17T15:07:48.551Z,29.20
2022-08-17T15:12:50.732Z,29.20
2022-08-17T15:17:52.901Z,29.40
2022-08-17T15:22:55.917Z,29.60
2022-08-17T15:27:58.753Z,29.70
2022-08-17T15:33:01.823Z,30.20
2022-08-17T15:38:11.552Z,30.90
2022-08-17T15:43:27.263Z,30.10
2022-08-17T15:48:51.072Z,30.30
2022-08-17T15:53:59.038Z,30.50
2022-08-17T15:59:01.280Z,30.60
2022-08-17T16:04:06.745Z,30.30
2022-08-17T16:09:09.133Z,30.40
2022-08-17T16:14:10.920Z,30.20
2022-08-17T16:19:16.271Z,30.20
2022-08-17T16:24:18.045Z,30.00
2022-08-17T16:29:19.866Z,30.20
2022-08-17T16:34:21.928Z,30.30
2022-08-17T16:39:25.609Z,30.20
2022-08-17T16:44:31.690Z,30.10
2022-08-17T16:49:36.989Z,30.10
2022-08-17T16:54:43.787Z,30.00
2022-08-17T16:59:50.160Z,30.00
2022-08-17T17:05:03.764Z,30.00
2022-08-17T17:10:09.874Z,30.00
2022-08-17T17:15:11.790Z,29.80
2022-08-17T17:20:16.628Z,29.70
2022-08-17T17:25:27.139Z,29.60
2022-08-17T17:30:49.843Z,29.60
2022-08-17T17:35:59.285Z,29.30
2022-08-17T17:41:05.673Z,29.00
2022-08-17T17:46:37.878Z,28.80
2022-08-17T17:52:07.821Z,28.60
2022-08-17T17:57:31.691Z,28.40
2022-08-17T18:02:51.203Z,28.20
2022-08-17T18:08:32.175Z,28.10
2022-08-17T18:13:54.289Z,27.90
2022-08-17T18:18:58.013Z,27.60
2022-08-17T18:24:02.329Z,27.50
2022-08-17T18:29:30.497Z,27.30
2022-08-17T18:34:48.664Z,27.20
2022-08-17T18:39:50.833Z,27.00
2022-08-17T18:44:55.254Z,27.00
2022-08-17T18:50:19.438Z,26.60
2022-08-17T18:55:29.276Z,26.30
2022-08-17T19:00:40.509Z,26.40
2022-08-17T19:05:46.245Z,26.20
2022-08-17T19:10:55.639Z,26.10
2022-08-17T19:16:18.114Z,25.70
2022-08-17T19:21:25.806Z,25.70
2022-08-17T19:26:53.776Z,25.30
2022-08-17T19:31:55.244Z,25.30
2022-08-17T19:37:06.958Z,24.80
2022-08-17T19:42:21.791Z,24.90
2022-08-17T19:47:53.638Z,24.70
2022-08-17T19:53:18.490Z,24.60
2022-08-17T19:58:37.063Z,24.60
2022-08-17T20:04:04.921Z,24.60
2022-08-17T20:09:34.651Z,24.50
2022-08-17T20:14:51.707Z,24.70
2022-08-17T20:20:06.281Z,24.50
2022-08-17T20:25:16.090Z,24.40
2022-08-17T20:30:24.356Z,24.20
2022-08-17T20:35:32.946Z,24.00
2022-08-17T20:40:59.758Z,24.00
2022-08-17T20:46:12.001Z,23.90
2022-08-17T20:52:00.565Z,23.80
2022-08-17T20:57:03.193Z,23.80
2022-08-17T21:02:21.804Z,23.50
2022-08-17T21:07:41.050Z,23.40
2022-08-17T21:13:04.482Z,23.40
2022-08-17T21:18:20.979Z,23.50
2022-08-17T21:23:59.381Z,23.60
2022-08-17T21:29:29.861Z,23.80
2022-08-17T21:34:43.135Z,23.90
2022-08-17T21:39:50.496Z,23.80
2022-08-17T21:44:57.991Z,23.80
2022-08-17T21:50:22.716Z,23.70
2022-08-17T21:55:29.394Z,23.70
2022-08-17T22:00:32.903Z,23.50
2022-08-17T22:05:37.560Z,23.40
2022-08-17T22:10:42.371Z,23.30
2022-08-17T22:16:27.949Z,23.20
2022-08-17T22:21:29.197Z,23.10
2022-08-17T22:27:01.324Z,23.10
2022-08-17T22:32:03.598Z,23.00
2022-08-17T22:37:27.975Z,22.60
2022-08-17T22:42:29.998Z,22.50
2022-08-17T22:47:40.135Z,22.60
2022-08-17T22:53:04.014Z,22.60
2022-08-17T22:58:36.627Z,22.60
2022-08-17T23:03:53.521Z,22.40
2022-08-17T23:08:57.648Z,22.30
2022-08-17T23:13:59.947Z,22.40
2022-08-17T23:19:01.731Z,22.10
2022-08-17T23:24:07.560Z,22.00
2022-08-17T23:29:09.729Z,22.10
2022-08-17T23:34:14.636Z,22.00
2022-08-17T23:39:17.696Z,22.10
2022-08-17T23:44:31.053Z,22.00
2022-08-17T23:49:33.278Z,21.90
2022-08-17T23:54:41.532Z,21.50
2022-08-17T23:59:44.006Z,21.20
